createdAt,value
2022-08-30T00:02:21.975Z,21.78
2022-08-30T00:07:28.355Z,22.86
2022-08-30T00:12:32.793Z,23.45
2022-08-30T00:17:36.118Z,23.82
2022-08-30T00:22:39.092Z,23.03
2022-08-30T00:27:42.823Z,21.94
2022-08-30T00:32:45.959Z,23.05
2022-08-30T00:37:49.197Z,23.52
2022-08-30T00:42:55.632Z,23.07
2022-08-30T00:48:02.161Z,21.58
2022-08-30T00:53:09.031Z,22.65
2022-08-30T00:58:17.254Z,23.33
2022-08-30T01:03:21.426Z,22.86
2022-08-30T01:08:24.631Z,21.65
2022-08-30T01:13:28.459Z,22.86
2022-08-30T01:18:32.218Z,23.49
2022-08-30T01:23:39.744Z,22.41
2022-08-30T01:28:50.700Z,21.53
2022-08-30T01:33:54.166Z,22.84
2022-08-30T01:38:58.643Z,23.40
2022-08-30T01:44:06.391Z,22.83
2022-08-30T01:49:13.308Z,21.42
2022-08-30T01:54:16.243Z,22.56
2022-08-30T01:59:19.040Z,23.26
2022-08-30T02:04:22.285Z,23.17
2022-08-30T02:09:25.201Z,21.76
2022-08-30T02:14:28.098Z,22.67
2022-08-30T02:19:31.018Z,23.34
2022-08-30T02:24:33.935Z,22.70
2022-08-30T02:29:36.864Z,21.53
2022-08-30T02:34:39.788Z,22.66
2022-08-30T02:39:42.787Z,23.25
2022-08-30T02:44:45.781Z,22.71
2022-08-30T02:49:48.623Z,21.30
2022-08-30T02:54:51.435Z,22.43
2022-08-30T02:59:54.274Z,23.15
2022-08-30T03:04:57.834Z,22.54
2022-08-30T03:10:01.256Z,21.55
2022-08-30T03:15:06.267Z,22.71
2022-08-30T03:20:10.794Z,23.23
2022-08-30T03:25:14.458Z,22.27
2022-08-30T03:30:20.027Z,21.71
2022-08-30T03:35:23.224Z,22.60
2022-08-30T03:40:26.870Z,23.12
2022-08-30T03:45:29.716Z,23.39
2022-08-30T03:50:32.970Z,23.54
2022-08-30T03:55:35.890Z,23.49
2022-08-30T04:00:38.821Z,21.96
2022-08-30T04:05:41.813Z,22.15
2022-08-30T04:10:44.714Z,22.93
2022-08-30T04:15:48.330Z,23.14
2022-08-30T04:20:52.784Z,23.41
2022-08-30T04:25:56.233Z,23.54
2022-08-30T04:30:59.198Z,22.78
2022-08-30T04:36:07.401Z,22.07
2022-08-30T04:41:15.129Z,23.00
2022-08-30T04:46:19.560Z,23.40
2022-08-30T04:51:22.759Z,23.44
2022-08-30T04:56:25.650Z,21.84
2022-08-30T05:01:31.114Z,21.85
2022-08-30T05:06:34.474Z,22.77
2022-08-30T05:11:38.624Z,23.19
2022-08-30T05:16:41.781Z,23.53
2022-08-30T05:21:45.455Z,23.02
2022-08-30T05:31:56.501Z,23.33
2022-08-30T05:36:59.756Z,23.76
2022-08-30T05:42:05.486Z,23.24
2022-08-30T05:47:08.357Z,22.08
2022-08-30T05:52:12.929Z,23.07
2022-08-30T05:57:15.733Z,23.24
2022-08-30T06:02:18.768Z,21.74
2022-08-30T06:07:22.870Z,22.26
2022-08-30T06:12:25.959Z,23.15
2022-08-30T06:17:28.941Z,22.75
2022-08-30T06:22:31.867Z,21.97
2022-08-30T06:27:35.281Z,23.06
2022-08-30T06:32:38.999Z,22.73
2022-08-30T06:37:43.742Z,22.33
2022-08-30T06:42:46.544Z,23.19
2022-08-30T06:47:49.881Z,22.25
2022-08-30T06:52:52.945Z,23.20
2022-08-30T06:57:56.826Z,23.35
2022-08-30T07:03:00.171Z,22.15
2022-08-30T07:08:03.207Z,23.46
2022-08-30T07:13:06.064Z,23.33
2022-08-30T07:18:30.790Z,22.83
2022-08-30T07:23:33.837Z,23.14
2022-08-30T07:28:43.802Z,22.72
2022-08-30T07:33:47.753Z,23.34
2022-08-30T07:38:51.489Z,22.20
2022-08-30T07:43:55.197Z,23.41
2022-08-30T07:49:00.459Z,22.81
2022-08-30T07:54:07.315Z,23.31
2022-08-30T07:59:10.295Z,23.34
2022-08-30T08:04:13.228Z,22.21
2022-08-30T08:09:16.130Z,22.56
2022-08-30T08:14:19.060Z,23.55
2022-08-30T08:19:27.468Z,22.43
2022-08-30T08:24:34.469Z,22.29
2022-08-30T08:29:37.336Z,23.53
2022-08-30T08:34:41.616Z,22.18
2022-08-30T08:39:44.624Z,21.86
2022-08-30T08:44:55.398Z,23.33
2022-08-30T08:50:03.137Z,23.38
2022-08-30T08:55:13.844Z,21.82
2022-08-30T09:00:16.780Z,22.52
2022-08-30T09:05:26.075Z,23.71
2022-08-30T09:10:49.469Z,23.06
2022-08-30T09:15:56.529Z,21.98
2022-08-30T09:21:05.770Z,23.36
2022-08-30T09:26:09.745Z,22.46
2022-08-30T09:31:23.700Z,22.57
2022-08-30T09:36:30.054Z,24.26
2022-08-30T09:41:45.362Z,23.24
2022-08-30T09:46:50.870Z,21.83
2022-08-30T09:52:07.126Z,23.03
2022-08-30T09:57:33.752Z,23.63
2022-08-30T10:02:52.558Z,22.07
2022-08-30T10:08:25.802Z,22.89
2022-08-30T10:13:53.468Z,24.00
2022-08-30T10:19:06.340Z,22.55
2022-08-30T10:24:24.545Z,22.38
2022-08-30T10:29:39.457Z,24.12
2022-08-30T10:34:52.607Z,24.06
2022-08-30T10:40:23.070Z,22.40
2022-08-30T10:45:33.222Z,23.33
2022-08-30T10:50:45.104Z,24.61
2022-08-30T10:56:03.801Z,23.69
2022-08-30T11:01:12.294Z,23.50
2022-08-30T11:06:26.089Z,24.92
2022-08-30T11:11:51.812Z,23.76
2022-08-30T11:16:59.319Z,23.49
2022-08-30T11:22:16.233Z,24.52
2022-08-30T11:27:46.469Z,23.22
2022-08-30T11:33:07.931Z,23.32
2022-08-30T11:38:27.527Z,24.18
2022-08-30T11:43:40.334Z,22.62
2022-08-30T11:48:55.173Z,23.50
2022-08-30T11:54:33.297Z,24.58
2022-08-30T11:59:47.465Z,23.18
2022-08-30T12:04:50.517Z,22.47
2022-08-30T12:09:53.778Z,23.73
2022-08-30T12:14:57.896Z,24.43
2022-08-30T12:20:00.920Z,23.28
2022-08-30T12:25:28.902Z,22.99
2022-08-30T12:30:32.303Z,24.65
2022-08-30T12:35:35.423Z,24.65
2022-08-30T12:40:50.003Z,23.24
2022-08-30T12:46:06.404Z,24.12
2022-08-30T12:51:27.539Z,24.17
2022-08-30T12:56:49.959Z,22.51
2022-08-30T13:01:56.294Z,23.61
2022-08-30T13:07:00.239Z,24.38
2022-08-30T13:12:08.115Z,24.50
2022-08-30T13:17:20.319Z,23.15
2022-08-30T13:22:35.149Z,22.91
2022-08-30T13:27:39.819Z,24.14
2022-08-30T13:32:43.681Z,23.94
2022-08-30T13:37:50.045Z,22.77
2022-08-30T13:42:54.763Z,24.06
2022-08-30T13:48:00.402Z,24.89
2022-08-30T13:53:04.050Z,23.91
2022-08-30T13:58:06.955Z,23.63
2022-08-30T14:03:10.190Z,24.57
2022-08-30T14:13:38.316Z,23.01
2022-08-30T14:19:01.943Z,24.17
2022-08-30T14:24:06.698Z,24.80
2022-08-30T14:29:13.134Z,24.40
2022-08-30T14:34:17.415Z,23.23
2022-08-30T14:39:22.490Z,24.52
2022-08-30T14:44:26.292Z,25.07
2022-08-30T14:49:29.085Z,23.63
2022-08-30T14:54:32.400Z,23.74
2022-08-30T14:59:35.172Z,24.96
2022-08-30T15:04:38.039Z,24.56
2022-08-30T15:09:41.205Z,22.98
2022-08-30T15:14:44.180Z,24.00
2022-08-30T15:19:47.024Z,24.88
2022-08-30T15:24:51.453Z,23.72
2022-08-30T15:29:54.545Z,23.18
2022-08-30T15:35:00.139Z,24.50
2022-08-30T15:40:04.756Z,24.55
2022-08-30T15:45:12.642Z,23.02
2022-08-30T15:50:16.349Z,23.96
2022-08-30T15:55:19.142Z,24.61
2022-08-30T16:00:22.052Z,23.08
2022-08-30T16:05:25.903Z,22.63
2022-08-30T16:10:29.516Z,23.87
2022-08-30T16:15:33.623Z,24.33
2022-08-30T16:20:37.613Z,22.98
2022-08-30T16:25:41.376Z,23.17
2022-08-30T16:30:44.356Z,24.32
2022-08-30T16:35:53.217Z,24.07
2022-08-30T16:40:57.004Z,22.40
2022-08-30T16:46:02.558Z,23.24
2022-08-30T16:51:12.670Z,24.17
2022-08-30T16:56:19.981Z,22.79
2022-08-30T17:01:23.608Z,22.58
2022-08-30T17:06:27.342Z,23.85
2022-08-30T17:11:30.199Z,24.35
2022-08-30T17:16:37.358Z,23.71
2022-08-30T17:21:40.617Z,22.06
2022-08-30T17:26:43.489Z,22.91
2022-08-30T17:31:51.376Z,23.77
2022-08-30T17:37:00.043Z,23.19
2022-08-30T17:42:03.472Z,21.80
2022-08-30T17:47:06.444Z,22.84
2022-08-30T17:52:11.535Z,23.40
2022-08-30T17:57:15.558Z,22.47
2022-08-30T18:02:22.742Z,20.84
2022-08-30T18:07:33.039Z,21.93
2022-08-30T18:12:35.905Z,22.73
2022-08-30T18:17:38.825Z,22.32
2022-08-30T18:22:41.845Z,20.86
2022-08-30T18:27:48.091Z,21.94
2022-08-30T18:33:01.449Z,22.67
2022-08-30T18:38:04.387Z,22.22
2022-08-30T18:43:10.017Z,20.35
2022-08-30T18:48:14.536Z,20.99
2022-08-30T18:53:28.509Z,22.17
2022-08-30T18:58:32.489Z,22.70
2022-08-30T19:03:36.063Z,21.85
2022-08-30T19:08:41.403Z,20.21
2022-08-30T19:13:48.733Z,21.27
2022-08-30T19:18:54.531Z,22.46
2022-08-30T19:23:57.452Z,23.04
2022-08-30T19:29:02.271Z,22.26
2022-08-30T19:34:05.200Z,20.97
2022-08-30T19:39:10.126Z,22.28
2022-08-30T19:44:13.102Z,23.06
2022-08-30T19:49:16.091Z,22.70
2022-08-30T19:54:19.610Z,21.17
2022-08-30T19:59:22.810Z,22.18
2022-08-30T20:04:26.995Z,23.03
2022-08-30T20:09:29.875Z,22.62
2022-08-30T20:14:32.864Z,20.98
2022-08-30T20:19:36.392Z,21.89
2022-08-30T20:24:43.436Z,22.85
2022-08-30T20:29:47.466Z,22.06
2022-08-30T20:34:53.950Z,20.49
2022-08-30T20:39:57.331Z,21.53
2022-08-30T20:45:00.740Z,22.56
2022-08-30T20:50:10.960Z,22.38
2022-08-30T20:55:17.629Z,20.57
2022-08-30T21:00:20.640Z,20.96
2022-08-30T21:05:25.043Z,22.20
2022-08-30T21:10:28.360Z,22.67
2022-08-30T21:15:37.757Z,21.49
2022-08-30T21:20:41.991Z,20.69
2022-08-30T21:25:44.954Z,21.99
2022-08-30T21:30:47.866Z,22.37
2022-08-30T21:36:09.548Z,20.73
2022-08-30T21:41:13.489Z,20.28
2022-08-30T21:46:17.595Z,21.58
2022-08-30T21:51:21.631Z,22.14
2022-08-30T21:56:24.650Z,21.69
2022-08-30T22:01:29.626Z,19.71
2022-08-30T22:06:34.988Z,20.06
2022-08-30T22:11:38.134Z,21.34
2022-08-30T22:16:42.412Z,21.88
2022-08-30T22:21:48.237Z,21.57
2022-08-30T22:26:51.686Z,19.81
2022-08-30T22:31:54.899Z,20.73
2022-08-30T22:36:59.114Z,21.64
2022-08-30T22:42:02.062Z,22.00
2022-08-30T22:47:05.177Z,21.58
2022-08-30T22:52:08.668Z,19.68
2022-08-30T22:57:14.927Z,20.20
2022-08-30T23:02:18.348Z,21.31
2022-08-30T23:07:21.713Z,21.70
2022-08-30T23:12:25.281Z,21.26
2022-08-30T23:17:28.120Z,19.46
2022-08-30T23:22:34.816Z,20.38
2022-08-30T23:27:56.798Z,21.34
2022-08-30T23:33:18.553Z,21.57
2022-08-30T23:38:40.620Z,21.51
2022-08-30T23:44:02.408Z,19.48
2022-08-30T23:49:24.101Z,19.68
2022-08-30T23:54:45.932Z,20.85
